createdAt,value
2023-02-15T00:00:21.814Z,80.61
2023-02-15T00:02:49.333Z,79.73
2023-02-15T00:05:16.901Z,79.74
2023-02-15T00:07:44.430Z,79.93
2023-02-15T00:10:13.033Z,80.34
2023-02-15T00:12:40.556Z,80.60
2023-02-15T00:15:08.508Z,80.50
2023-02-15T00:17:35.923Z,81.68
2023-02-15T00:20:03.755Z,81.23
2023-02-15T00:22:31.244Z,81.49
2023-02-15T00:24:58.718Z,80.57
2023-02-15T00:27:26.173Z,81.36
2023-02-15T00:29:53.706Z,81.62
2023-02-15T00:32:21.195Z,81.19
2023-02-15T00:34:49.827Z,78.99
2023-02-15T00:37:17.575Z,79.11
2023-02-15T00:39:48.248Z,79.32
2023-02-15T00:42:15.723Z,79.46
2023-02-15T00:44:43.236Z,78.86
2023-02-15T00:47:10.640Z,79.58
2023-02-15T00:49:39.573Z,79.87
2023-02-15T00:52:07.053Z,80.94
2023-02-15T00:54:35.719Z,81.28
2023-02-15T00:57:03.193Z,81.86
2023-02-15T00:59:30.787Z,81.13
2023-02-15T01:01:58.494Z,81.42
2023-02-15T01:04:26.025Z,81.80
2023-02-15T01:06:53.554Z,81.43
2023-02-15T01:09:21.149Z,81.56
2023-02-15T01:11:48.694Z,82.17
2023-02-15T01:14:16.148Z,80.52
2023-02-15T01:16:43.602Z,81.11
2023-02-15T01:19:11.073Z,80.48
2023-02-15T01:21:41.644Z,80.58
2023-02-15T01:24:15.550Z,80.66
2023-02-15T01:26:43.037Z,81.74
2023-02-15T01:29:10.493Z,82.41
2023-02-15T01:31:40.170Z,82.56
2023-02-15T01:34:07.925Z,83.39
2023-02-15T01:36:36.377Z,84.40
2023-02-15T01:39:04.039Z,84.55
2023-02-15T01:41:32.480Z,83.96
2023-02-15T01:44:04.265Z,83.37
2023-02-15T01:46:51.406Z,82.07
2023-02-15T01:49:23.867Z,81.68
2023-02-15T01:51:53.909Z,82.51
2023-02-15T01:54:34.994Z,82.17
2023-02-15T01:57:12.134Z,82.71
2023-02-15T01:59:43.006Z,83.21
2023-02-15T02:02:16.506Z,84.47
2023-02-15T02:04:56.596Z,84.51
2023-02-15T02:07:30.294Z,84.19
2023-02-15T02:10:02.358Z,84.34
2023-02-15T02:12:30.896Z,84.26
2023-02-15T02:14:59.126Z,81.59
2023-02-15T02:18:28.176Z,81.81
2023-02-15T02:21:12.032Z,82.48
2023-02-15T02:24:18.224Z,82.46
2023-02-15T02:27:23.876Z,82.22
2023-02-15T02:54:08.513Z,81.87
2023-02-15T02:56:42.227Z,81.89
2023-02-15T02:59:30.363Z,83.16
2023-02-15T03:02:17.603Z,84.88
2023-02-15T03:04:59.605Z,86.20
2023-02-15T03:07:30.758Z,85.69
2023-02-15T03:10:03.832Z,86.47
2023-02-15T03:12:38.724Z,86.92
2023-02-15T03:15:22.582Z,87.17
2023-02-15T03:17:57.834Z,87.44
2023-02-15T03:20:32.302Z,87.56
2023-02-15T03:23:10.705Z,87.41
2023-02-15T03:25:47.682Z,88.42
2023-02-15T03:28:22.194Z,88.65
2023-02-15T03:30:55.018Z,86.70
2023-02-15T03:33:25.534Z,86.31
2023-02-15T03:36:23.694Z,87.26
2023-02-15T03:39:14.497Z,87.28
2023-02-15T03:41:58.567Z,87.92
2023-02-15T03:44:33.125Z,85.84
2023-02-15T03:47:09.870Z,86.00
2023-02-15T03:49:59.241Z,85.34
2023-02-15T03:52:29.422Z,85.15
2023-02-15T03:54:57.471Z,85.58
2023-02-15T03:57:48.554Z,85.02
2023-02-15T04:00:44.464Z,85.10
2023-02-15T04:03:24.896Z,83.52
2023-02-15T04:05:52.524Z,84.91
2023-02-15T04:08:20.118Z,85.80
2023-02-15T04:10:53.606Z,84.74
2023-02-15T04:13:23.975Z,84.51
2023-02-15T04:16:08.156Z,84.74
2023-02-15T04:19:03.750Z,83.85
2023-02-15T04:21:50.610Z,85.42
2023-02-15T04:24:37.973Z,84.68
2023-02-15T04:27:06.842Z,84.88
2023-02-15T04:29:34.605Z,85.54
2023-02-15T04:32:03.574Z,85.92
2023-02-15T04:34:31.053Z,85.96
2023-02-15T04:36:58.568Z,85.32
2023-02-15T04:39:26.015Z,85.07
2023-02-15T04:41:53.481Z,86.22
2023-02-15T04:44:20.885Z,85.97
2023-02-15T04:46:48.371Z,85.73
2023-02-15T04:49:16.538Z,85.06
2023-02-15T04:51:43.977Z,85.42
2023-02-15T04:54:11.512Z,85.70
2023-02-15T04:56:39.985Z,86.16
2023-02-15T04:59:08.038Z,85.89
2023-02-15T05:01:35.522Z,85.84
2023-02-15T05:04:03.636Z,86.06
2023-02-15T05:06:31.298Z,86.69
2023-02-15T05:09:00.269Z,87.09
2023-02-15T05:11:29.176Z,86.91
2023-02-15T05:13:56.757Z,86.67
2023-02-15T05:16:24.448Z,87.18
2023-02-15T05:18:52.046Z,86.89
2023-02-15T05:21:22.666Z,87.58
2023-02-15T05:23:50.149Z,87.60
2023-02-15T05:26:43.031Z,87.12
2023-02-15T05:29:11.418Z,87.09
2023-02-15T05:31:39.806Z,86.99
2023-02-15T05:34:07.504Z,86.88
2023-02-15T05:36:34.924Z,85.91
2023-02-15T05:39:02.307Z,85.91
2023-02-15T05:41:30.076Z,85.66
2023-02-15T05:43:57.894Z,83.80
2023-02-15T05:46:25.429Z,84.27
2023-02-15T05:48:52.875Z,83.07
2023-02-15T05:51:20.312Z,83.67
2023-02-15T05:53:47.897Z,83.72
2023-02-15T05:56:15.501Z,83.99
2023-02-15T05:58:44.002Z,84.63
2023-02-15T06:01:14.642Z,85.30
2023-02-15T06:03:42.647Z,85.02
2023-02-15T06:06:10.518Z,85.57
2023-02-15T06:08:39.711Z,84.96
2023-02-15T06:11:07.934Z,84.73
2023-02-15T06:13:38.590Z,83.43
2023-02-15T06:16:07.814Z,82.72
2023-02-15T06:18:36.756Z,83.33
2023-02-15T06:21:04.541Z,82.19
2023-02-15T06:23:32.537Z,82.33
2023-02-15T06:26:00.080Z,83.33
2023-02-15T06:28:27.694Z,84.25
2023-02-15T06:30:55.747Z,83.88
2023-02-15T06:33:23.590Z,83.51
2023-02-15T06:35:51.094Z,82.16
2023-02-15T06:38:18.619Z,81.73
2023-02-15T06:40:46.089Z,79.73
2023-02-15T06:43:13.527Z,79.38
2023-02-15T06:45:42.064Z,79.17
2023-02-15T06:48:09.627Z,79.11
2023-02-15T06:50:37.147Z,78.70
2023-02-15T06:53:04.842Z,78.25
2023-02-15T06:55:32.414Z,76.98
2023-02-15T06:57:59.833Z,76.54
2023-02-15T07:00:27.354Z,76.14
2023-02-15T07:02:59.182Z,75.20
2023-02-15T07:05:32.265Z,75.85
2023-02-15T07:08:01.411Z,76.56
2023-02-15T07:10:31.784Z,74.70
2023-02-15T07:12:59.325Z,75.64
2023-02-15T07:15:26.784Z,74.94
2023-02-15T07:17:54.296Z,74.64
2023-02-15T07:20:24.082Z,74.28
2023-02-15T07:22:52.391Z,75.54
2023-02-15T07:25:20.228Z,74.89
2023-02-15T07:27:47.999Z,75.01
2023-02-15T07:30:18.347Z,74.88
2023-02-15T07:33:05.773Z,76.54
2023-02-15T07:35:34.767Z,74.58
2023-02-15T07:38:02.742Z,76.37
2023-02-15T07:40:30.193Z,75.29
2023-02-15T07:43:00.196Z,75.14
2023-02-15T07:45:28.187Z,75.70
2023-02-15T07:47:55.913Z,75.43
2023-02-15T07:50:23.473Z,74.61
2023-02-15T07:52:50.957Z,73.25
2023-02-15T07:55:19.561Z,71.68
2023-02-15T07:57:49.459Z,71.22
2023-02-15T08:00:22.490Z,70.82
2023-02-15T08:03:13.821Z,71.25
2023-02-15T08:05:43.988Z,67.66
2023-02-15T08:08:30.695Z,69.79
2023-02-15T08:11:22.592Z,70.15
2023-02-15T08:14:00.508Z,70.42
2023-02-15T08:16:42.597Z,69.02
2023-02-15T08:19:11.437Z,68.69
2023-02-15T08:21:42.594Z,64.79
2023-02-15T08:24:12.686Z,67.37
2023-02-15T08:26:42.390Z,69.31
2023-02-15T08:29:11.006Z,67.97
2023-02-15T08:31:39.471Z,66.84
2023-02-15T08:34:07.723Z,65.61
2023-02-15T08:36:35.473Z,65.32
2023-02-15T08:39:06.046Z,65.97
2023-02-15T08:41:36.624Z,67.33
2023-02-15T08:44:07.740Z,68.02
2023-02-15T08:46:38.721Z,67.27
2023-02-15T08:49:06.682Z,66.40
2023-02-15T08:51:37.899Z,65.15
2023-02-15T08:54:09.542Z,62.55
2023-02-15T08:56:40.358Z,63.30
2023-02-15T08:59:17.383Z,60.39
2023-02-15T09:01:46.242Z,59.39
2023-02-15T09:04:14.213Z,58.60
2023-02-15T09:06:46.407Z,56.72
2023-02-15T09:09:16.853Z,56.58
2023-02-15T09:11:47.693Z,57.26
2023-02-15T09:14:18.755Z,56.94
2023-02-15T09:16:49.831Z,55.98
2023-02-15T09:19:19.477Z,56.46
2023-02-15T09:21:47.755Z,55.49
2023-02-15T09:24:18.197Z,54.76
2023-02-15T09:26:49.670Z,53.43
2023-02-15T09:29:19.669Z,54.23
2023-02-15T09:31:51.094Z,53.69
2023-02-15T09:34:22.905Z,52.74
2023-02-15T09:36:52.085Z,52.87
2023-02-15T09:39:26.573Z,53.52
2023-02-15T09:42:13.185Z,50.66
2023-02-15T09:45:05.319Z,50.31
2023-02-15T09:47:54.440Z,48.46
2023-02-15T09:51:03.948Z,49.83
2023-02-15T09:53:53.040Z,49.62
2023-02-15T09:56:29.550Z,48.18
2023-02-15T09:59:57.022Z,48.17
2023-02-15T10:02:43.077Z,46.56
2023-02-15T10:05:47.933Z,47.75
2023-02-15T10:08:54.301Z,45.68
2023-02-15T10:11:43.020Z,45.30
2023-02-15T10:14:38.753Z,44.28
2023-02-15T10:17:15.437Z,43.97
2023-02-15T10:19:55.256Z,43.78
2023-02-15T10:23:29.927Z,43.31
2023-02-15T10:26:15.024Z,43.20
2023-02-15T10:28:58.601Z,43.23
2023-02-15T10:31:51.900Z,42.44
2023-02-15T10:34:40.605Z,41.33
2023-02-15T10:37:54.424Z,40.28
2023-02-15T10:40:34.051Z,40.75
2023-02-15T10:43:49.712Z,41.22
2023-02-15T10:46:38.798Z,41.87
2023-02-15T10:49:27.470Z,40.25
2023-02-15T10:51:57.869Z,39.47
2023-02-15T10:54:42.140Z,38.85
2023-02-15T10:57:56.330Z,39.72
2023-02-15T11:01:03.339Z,39.65
2023-02-15T11:03:59.710Z,38.61
2023-02-15T11:06:29.080Z,39.23
2023-02-15T11:09:04.006Z,38.98
2023-02-15T11:11:46.081Z,37.15
2023-02-15T11:14:55.498Z,37.52
2023-02-15T11:17:51.693Z,36.97
2023-02-15T11:20:33.512Z,36.13
2023-02-15T11:23:03.278Z,37.68
2023-02-15T11:25:35.275Z,37.57
2023-02-15T11:28:11.390Z,37.93
2023-02-15T11:30:55.535Z,37.88
2023-02-15T11:33:36.369Z,36.98
2023-02-15T11:36:19.215Z,36.97
2023-02-15T11:38:52.273Z,36.40
2023-02-15T11:41:29.741Z,35.81
2023-02-15T11:44:12.303Z,34.80
2023-02-15T11:46:40.172Z,34.36
2023-02-15T11:49:27.121Z,34.57
2023-02-15T11:51:57.076Z,34.59
2023-02-15T11:54:36.644Z,33.46
2023-02-15T11:57:33.872Z,34.01
2023-02-15T12:00:27.301Z,34.24
2023-02-15T12:03:01.329Z,33.55
2023-02-15T12:05:29.321Z,32.65
2023-02-15T12:08:10.228Z,32.94
2023-02-15T12:10:50.120Z,31.82
2023-02-15T12:13:20.430Z,31.04
2023-02-15T12:15:52.648Z,31.45
2023-02-15T12:18:48.458Z,31.78
2023-02-15T12:21:27.614Z,32.06
2023-02-15T12:24:03.755Z,32.34
2023-02-15T12:26:36.328Z,30.65
2023-02-15T12:29:29.231Z,29.84
2023-02-15T12:31:57.206Z,29.69
2023-02-15T12:34:44.748Z,31.59
2023-02-15T12:37:35.630Z,31.51
2023-02-15T12:40:24.873Z,31.67
2023-02-15T12:42:52.364Z,30.80
2023-02-15T12:45:33.350Z,30.85
2023-02-15T12:48:21.588Z,30.74
2023-02-15T12:50:55.096Z,30.31
2023-02-15T12:53:34.555Z,29.86
2023-02-15T12:56:08.139Z,30.05
2023-02-15T12:58:41.088Z,28.86
2023-02-15T13:01:22.308Z,27.77
2023-02-15T13:04:05.831Z,28.58
2023-02-15T13:06:36.814Z,28.64
2023-02-15T13:09:21.875Z,27.85
2023-02-15T13:11:49.510Z,27.55
2023-02-15T13:14:29.907Z,28.25
2023-02-15T13:17:02.930Z,27.70
2023-02-15T13:19:43.595Z,27.65
2023-02-15T13:22:36.688Z,28.42
2023-02-15T13:25:23.953Z,28.28
2023-02-15T13:27:59.330Z,27.80
2023-02-15T13:30:36.223Z,27.31
2023-02-15T13:33:33.192Z,26.58
2023-02-15T13:36:21.689Z,26.75
2023-02-15T13:39:35.430Z,26.75
2023-02-15T13:42:07.349Z,25.87
2023-02-15T13:44:40.863Z,25.73
2023-02-15T13:47:26.450Z,25.39
2023-02-15T13:50:33.572Z,25.57
2023-02-15T13:53:40.562Z,26.04
2023-02-15T13:56:22.810Z,24.50
2023-02-15T13:59:30.008Z,23.33
2023-02-15T14:02:14.781Z,24.76
2023-02-15T14:05:26.971Z,24.73
2023-02-15T14:08:06.008Z,24.40
2023-02-15T14:11:09.301Z,23.92
2023-02-15T14:13:48.722Z,23.18
2023-02-15T14:17:07.287Z,22.76
2023-02-15T14:19:58.664Z,22.05
2023-02-15T14:22:47.427Z,22.79
2023-02-15T14:25:31.498Z,22.56
2023-02-15T14:28:18.549Z,22.57
2023-02-15T14:30:52.768Z,22.88
2023-02-15T14:33:43.811Z,22.82
2023-02-15T14:36:20.515Z,23.28
2023-02-15T14:39:35.045Z,23.94
2023-02-15T14:42:42.158Z,23.86
2023-02-15T14:45:56.545Z,23.69
2023-02-15T14:48:43.249Z,23.33
2023-02-15T14:51:11.299Z,23.37
2023-02-15T14:53:40.924Z,23.81
2023-02-15T14:56:15.276Z,23.58
2023-02-15T14:58:54.888Z,23.97
2023-02-15T15:01:34.592Z,24.64
2023-02-15T15:04:23.259Z,24.53
2023-02-15T15:07:24.174Z,25.49
2023-02-15T15:10:27.616Z,25.94
2023-02-15T15:12:57.779Z,26.25
2023-02-15T15:15:31.437Z,26.67
2023-02-15T15:18:08.991Z,26.79
2023-02-15T15:20:52.725Z,27.27
2023-02-15T15:23:20.162Z,27.55
2023-02-15T15:26:22.447Z,28.35
2023-02-15T15:28:50.211Z,28.71
2023-02-15T15:31:21.758Z,29.01
2023-02-15T15:34:18.583Z,29.84
2023-02-15T15:37:10.195Z,31.48
2023-02-15T15:40:08.151Z,32.75
2023-02-15T15:43:10.286Z,33.86
2023-02-15T15:46:19.044Z,35.49
2023-02-15T15:48:46.818Z,36.10
2023-02-15T15:51:29.517Z,36.38
2023-02-15T15:53:58.022Z,37.04
2023-02-15T15:56:32.537Z,37.68
2023-02-15T15:59:07.289Z,38.42
2023-02-15T16:01:53.561Z,39.06
2023-02-15T16:04:35.180Z,39.57
2023-02-15T16:07:35.208Z,40.59
2023-02-15T16:10:18.848Z,40.59
2023-02-15T16:12:52.915Z,41.55
2023-02-15T16:15:37.957Z,41.69
2023-02-15T16:18:27.645Z,42.67
2023-02-15T16:21:03.587Z,42.51
2023-02-15T16:23:39.916Z,42.57
2023-02-15T16:26:48.001Z,43.31
2023-02-15T16:29:18.431Z,43.95
2023-02-15T16:32:07.236Z,43.74
2023-02-15T16:34:35.870Z,44.31
2023-02-15T16:37:18.991Z,44.18
2023-02-15T16:39:50.211Z,44.22
2023-02-15T16:42:21.134Z,44.55
2023-02-15T16:45:18.933Z,44.78
2023-02-15T16:47:53.497Z,44.49
2023-02-15T16:50:34.484Z,44.58
2023-02-15T16:53:08.328Z,44.26
2023-02-15T16:55:44.251Z,44.60
2023-02-15T16:58:18.946Z,44.81
2023-02-15T17:00:47.752Z,45.43
2023-02-15T17:03:15.342Z,45.07
2023-02-15T17:05:50.943Z,45.23
2023-02-15T17:08:39.836Z,45.83
2023-02-15T17:11:24.992Z,46.01
2023-02-15T17:14:07.716Z,45.80
2023-02-15T17:16:38.665Z,45.81
2023-02-15T17:19:27.532Z,46.33
2023-02-15T17:22:04.352Z,46.00
2023-02-15T17:24:46.465Z,46.59
2023-02-15T17:27:23.481Z,46.14
2023-02-15T17:30:00.465Z,46.37
2023-02-15T17:32:35.381Z,45.87
2023-02-15T17:35:09.535Z,46.49
2023-02-15T17:37:45.461Z,46.50
2023-02-15T17:40:31.623Z,47.30
2023-02-15T17:43:19.138Z,47.89
2023-02-15T17:45:51.606Z,48.13
2023-02-15T17:48:35.743Z,49.32
2023-02-15T17:51:06.839Z,49.06
2023-02-15T17:53:36.693Z,49.51
2023-02-15T17:56:10.942Z,50.41
2023-02-15T17:58:39.407Z,50.52
2023-02-15T18:01:34.123Z,49.87
2023-02-15T18:04:20.821Z,50.12
2023-02-15T18:07:07.805Z,51.59
2023-02-15T18:09:54.031Z,52.39
2023-02-15T18:12:25.028Z,53.28
2023-02-15T18:15:06.177Z,55.61
2023-02-15T18:17:49.112Z,56.35
2023-02-15T18:20:30.117Z,58.55
2023-02-15T18:22:58.206Z,58.85
2023-02-15T18:25:27.824Z,59.45
2023-02-15T18:27:58.906Z,58.76
2023-02-15T18:30:27.189Z,59.81
2023-02-15T18:33:01.300Z,61.48
2023-02-15T18:35:33.961Z,62.69
2023-02-15T18:38:05.465Z,63.70
2023-02-15T18:40:33.101Z,63.20
2023-02-15T18:43:01.396Z,62.85
2023-02-15T18:45:36.216Z,62.05
2023-02-15T18:48:04.694Z,62.77
2023-02-15T18:50:36.581Z,62.00
2023-02-15T18:53:13.267Z,61.14
2023-02-15T18:55:40.758Z,60.21
2023-02-15T18:58:18.447Z,60.99
2023-02-15T19:00:50.384Z,58.90
2023-02-15T19:03:19.238Z,59.07
2023-02-15T19:05:48.741Z,58.99
2023-02-15T19:08:21.980Z,57.73
2023-02-15T19:10:53.447Z,58.05
2023-02-15T19:13:22.745Z,58.13
2023-02-15T19:15:52.981Z,56.71
2023-02-15T19:18:21.653Z,57.02
2023-02-15T19:20:50.907Z,57.22
2023-02-15T19:23:22.672Z,56.15
2023-02-15T19:25:53.157Z,57.53
2023-02-15T19:28:32.807Z,57.14
2023-02-15T19:31:00.438Z,56.32
2023-02-15T19:33:28.498Z,57.37
2023-02-15T19:35:57.895Z,57.10
2023-02-15T19:38:36.589Z,58.18
2023-02-15T19:41:09.730Z,58.09
2023-02-15T19:43:37.761Z,58.43
2023-02-15T19:46:05.745Z,58.50
2023-02-15T19:48:36.597Z,58.18
2023-02-15T19:51:06.150Z,58.05
2023-02-15T19:53:34.089Z,58.24
2023-02-15T19:56:03.967Z,57.83
2023-02-15T19:58:34.508Z,58.08
2023-02-15T20:01:04.373Z,57.58
2023-02-15T20:03:32.282Z,56.92
2023-02-15T20:06:01.261Z,58.03
2023-02-15T20:08:30.800Z,57.91
2023-02-15T20:10:59.506Z,57.80
2023-02-15T20:13:28.808Z,57.87
2023-02-15T20:16:16.322Z,57.42
2023-02-15T20:18:46.516Z,58.10
2023-02-15T20:21:17.575Z,58.97
2023-02-15T20:23:46.698Z,58.67
2023-02-15T20:26:18.490Z,60.04
2023-02-15T20:28:47.230Z,58.92
2023-02-15T20:31:18.728Z,59.43
2023-02-15T20:33:50.490Z,59.47
2023-02-15T20:36:21.123Z,59.85
2023-02-15T20:38:48.944Z,59.35
2023-02-15T20:41:36.032Z,59.88
2023-02-15T20:44:28.524Z,60.08
2023-02-15T20:46:59.291Z,61.40
2023-02-15T20:49:29.478Z,62.02
2023-02-15T20:51:58.445Z,62.70
2023-02-15T20:54:51.501Z,62.88
2023-02-15T20:57:40.065Z,63.45
2023-02-15T21:00:26.202Z,65.16
2023-02-15T21:02:59.130Z,66.53
2023-02-15T21:05:30.911Z,67.50
2023-02-15T21:07:58.534Z,67.86
2023-02-15T21:10:32.626Z,68.18
2023-02-15T21:13:01.835Z,68.06
2023-02-15T21:15:34.340Z,67.27
2023-02-15T21:18:27.237Z,68.60
2023-02-15T21:21:03.869Z,68.47
2023-02-15T21:23:40.610Z,68.29
2023-02-15T21:26:19.552Z,68.42
2023-02-15T21:28:48.258Z,68.10
2023-02-15T21:31:24.578Z,68.90
2023-02-15T21:33:52.553Z,69.87
2023-02-15T21:36:24.362Z,69.70
2023-02-15T21:38:53.820Z,70.52
2023-02-15T21:41:42.693Z,70.38
2023-02-15T21:44:40.356Z,70.07
2023-02-15T21:47:38.326Z,70.08
2023-02-15T21:50:27.404Z,70.10
2023-02-15T21:52:55.272Z,70.42
2023-02-15T21:55:22.868Z,70.64
2023-02-15T21:57:50.513Z,69.73
2023-02-15T22:00:21.699Z,69.57
2023-02-15T22:02:54.263Z,69.69
2023-02-15T22:05:27.420Z,69.64
2023-02-15T22:07:55.651Z,69.92
2023-02-15T22:10:24.454Z,69.49
2023-02-15T22:12:53.138Z,69.95
2023-02-15T22:15:23.649Z,69.92
2023-02-15T22:17:53.023Z,69.79
2023-02-15T22:20:23.797Z,70.27
2023-02-15T22:22:53.162Z,70.74
2023-02-15T22:25:26.449Z,70.62
2023-02-15T22:27:55.670Z,70.79
2023-02-15T22:30:29.392Z,69.72
2023-02-15T22:32:59.019Z,70.00
2023-02-15T22:35:29.110Z,70.21
2023-02-15T22:37:56.740Z,70.93
2023-02-15T22:40:32.699Z,71.20
2023-02-15T22:43:05.851Z,70.05
2023-02-15T22:45:36.302Z,70.42
2023-02-15T22:48:04.306Z,70.57
2023-02-15T22:50:34.792Z,70.73
2023-02-15T22:53:06.383Z,70.61
2023-02-15T22:55:38.041Z,71.28
2023-02-15T22:58:06.354Z,71.58
2023-02-15T23:00:40.567Z,71.68
2023-02-15T23:03:24.804Z,71.84
2023-02-15T23:05:53.252Z,71.75
2023-02-15T23:08:21.387Z,72.13
2023-02-15T23:10:56.216Z,72.27
2023-02-15T23:13:30.275Z,72.39
2023-02-15T23:16:04.311Z,72.26
2023-02-15T23:18:39.445Z,72.59
2023-02-15T23:21:22.987Z,72.69
2023-02-15T23:23:56.508Z,73.33
2023-02-15T23:26:31.255Z,73.53
2023-02-15T23:29:01.443Z,71.96
2023-02-15T23:31:35.046Z,72.30
2023-02-15T23:34:13.128Z,72.27
2023-02-15T23:36:40.622Z,72.52
2023-02-15T23:39:41.728Z,71.82
2023-02-15T23:42:30.752Z,71.71
2023-02-15T23:44:58.933Z,72.40
2023-02-15T23:47:55.013Z,72.88
2023-02-15T23:50:25.568Z,74.16
2023-02-15T23:52:55.405Z,74.54
2023-02-15T23:55:25.589Z,74.37
2023-02-15T23:57:57.047Z,74.01
